Time;durP1;ratioP1;P1;durP2;ratioP2;P2;SDS_P1;SDS_P2;PMS_P1;PMS_P2;Temp;Humidity;BMP_temperature;BMP_pressure;BME280_temperature;BME280_humidity;BME280_pressure;Samples;Min_cycle;Max_cycle;Signal;HPM_P1;HPM_P2
2022/11/18 00:00:53;;;;;;;6.73;0.80;;;;;;;11.15;86.67;98533.88;5026406;28;20410;-74
2022/11/18 00:03:18;;;;;;;5.53;0.67;;;;;;;11.07;87.05;98532.63;5028491;28;20407;-74
2022/11/18 00:05:56;;;;;;;1.90;0.63;;;;;;;11.04;87.30;98535.94;5034935;28;20415;-74
2022/11/18 00:08:25;;;;;;;1.67;0.50;;;;;;;11.08;87.50;98528.03;5021210;28;20411;-74
2022/11/18 00:10:51;;;;;;;3.75;0.40;;;;;;;11.14;87.15;98524.94;5030435;28;20521;-74
2022/11/18 00:16:03;;;;;;;2.22;0.50;;;;;;;11.20;87.01;98533.78;5033829;28;20393;-74
2022/11/18 00:18:28;;;;;;;3.10;0.50;;;;;;;11.25;86.66;98533.72;5026331;28;20448;-74
2022/11/18 00:20:54;;;;;;;2.40;0.50;;;;;;;11.27;86.67;98534.22;5028172;28;20419;-74
2022/11/18 00:23:19;;;;;;;3.10;0.50;;;;;;;11.27;86.66;98529.59;5034097;28;20405;-74
2022/11/18 00:25:44;;;;;;;3.80;0.60;;;;;;;11.27;86.96;98534.22;5034538;28;20399;-73
2022/11/18 00:28:10;;;;;;;3.53;0.53;;;;;;;11.29;86.68;98535.56;5025565;28;20498;-74
2022/11/18 00:30:35;;;;;;;2.60;1.00;;;;;;;11.29;86.93;98537.47;5034539;28;20395;-74
2022/11/18 00:33:00;;;;;;;5.95;0.70;;;;;;;11.30;86.96;98539.03;5034037;28;20411;-74
2022/11/18 00:35:25;;;;;;;3.10;0.60;;;;;;;11.29;86.99;98540.16;5032907;28;20434;-74
2022/11/18 00:37:51;;;;;;;3.43;0.57;;;;;;;11.29;86.98;98530.13;5030536;28;20408;-74
2022/11/18 00:40:16;;;;;;;0.50;0.50;;;;;;;11.32;87.13;98537.66;5025167;28;20395;-74
2022/11/18 00:42:50;;;;;;;3.47;0.70;;;;;;;11.27;87.12;98535.03;5030944;28;20814;-73
2022/11/18 00:45:19;;;;;;;3.33;0.50;;;;;;;11.28;87.15;98535.84;5034234;28;20407;-73
2022/11/18 00:47:45;;;;;;;1.60;0.43;;;;;;;11.29;87.18;98538.25;5025376;28;20416;-74
2022/11/18 00:50:10;;;;;;;3.42;0.68;;;;;;;11.27;87.36;98547.78;5025464;28;20407;-73
2022/11/18 00:52:36;;;;;;;2.77;0.47;;;;;;;11.27;87.47;98537.72;5032252;28;20406;-74
2022/11/18 00:55:01;;;;;;;2.90;0.70;;;;;;;11.30;87.49;98533.63;5023829;28;20475;-74
2022/11/18 00:57:26;;;;;;;4.37;0.80;;;;;;;11.31;87.56;98544.19;5033271;28;20410;-74
2022/11/18 00:59:51;;;;;;;2.90;0.60;;;;;;;11.29;87.42;98546.41;5032942;28;20415;-74
2022/11/18 01:02:17;;;;;;;2.40;0.90;;;;;;;11.29;87.50;98556.44;5032722;28;20399;-74
2022/11/18 01:04:42;;;;;;;2.30;1.13;;;;;;;11.28;87.83;98552.09;5033674;28;20905;-74
2022/11/18 01:07:07;;;;;;;2.50;1.10;;;;;;;11.25;87.91;98568.97;5031851;28;20417;-74
2022/11/18 01:09:33;;;;;;;1.70;0.60;;;;;;;11.21;87.83;98565.22;5022812;28;20453;-74
2022/11/18 01:14:42;;;;;;;4.30;0.40;;;;;;;11.23;87.91;98568.47;5033584;28;20382;-74
2022/11/18 01:17:07;;;;;;;1.97;0.60;;;;;;;11.25;87.87;98577.91;5026188;28;20392;-74
2022/11/18 01:19:33;;;;;;;3.47;0.40;;;;;;;11.35;87.51;98576.94;5029310;28;20407;-74
2022/11/18 01:22:01;;;;;;;4.97;0.63;;;;;;;11.37;87.78;98580.97;5032931;28;20870;-74
2022/11/18 01:24:33;;;;;;;1.92;0.30;;;;;;;11.35;87.56;98580.47;5033343;28;20817;-74
2022/11/18 01:27:00;;;;;;;2.90;0.40;;;;;;;11.32;87.80;98582.97;5025315;28;20759;-74
2022/11/18 01:29:26;;;;;;;1.77;0.43;;;;;;;11.31;87.92;98582.16;5026956;28;20411;-74
2022/11/18 01:31:51;;;;;;;2.00;0.55;;;;;;;11.27;88.09;98586.53;5033413;28;20743;-74
2022/11/18 01:34:16;;;;;;;1.60;0.57;;;;;;;11.27;88.14;98588.44;5031205;28;20411;-74
2022/11/18 01:36:41;;;;;;;4.22;0.50;;;;;;;11.25;88.23;98599.59;5023316;28;20403;-74
2022/11/18 01:39:07;;;;;;;2.73;0.50;;;;;;;11.21;88.46;98595.88;5031501;28;20409;-74
2022/11/18 01:41:32;;;;;;;2.43;0.60;;;;;;;11.19;88.61;98602.69;5033192;28;20446;-74
2022/11/18 01:44:01;;;;;;;2.17;0.60;;;;;;;11.12;88.60;98599.53;5030553;28;20411;-74
2022/11/18 01:46:29;;;;;;;5.38;0.70;;;;;;;11.02;89.13;98594.25;5026235;28;20423;-74
2022/11/18 01:49:08;;;;;;;1.80;0.60;;;;;;;11.09;89.11;98595.50;5029798;28;20411;-75
2022/11/18 01:51:37;;;;;;;2.55;0.60;;;;;;;11.05;89.16;98597.19;5033058;28;20751;-74
2022/11/18 01:54:10;;;;;;;0.73;0.30;;;;;;;11.10;89.39;98607.16;5018888;28;20395;-75
2022/11/18 01:56:42;;;;;;;1.42;0.32;;;;;;;11.15;88.86;98628.75;5018455;28;20457;-75
2022/11/18 01:59:13;;;;;;;2.75;0.57;;;;;;;11.06;89.31;98634.03;5022205;28;20416;-76
2022/11/18 02:01:40;;;;;;;4.88;0.52;;;;;;;11.03;89.84;98633.81;5016186;28;20401;-75
2022/11/18 02:04:06;;;;;;;2.90;1.17;;;;;;;11.02;90.28;98629.50;5030479;28;20821;-75
2022/11/18 02:06:32;;;;;;;2.60;0.52;;;;;;;10.93;90.75;98626.63;5014987;28;20455;-75
2022/11/18 02:08:58;;;;;;;0.90;0.40;;;;;;;10.86;90.68;98635.13;5018400;28;20455;-74
2022/11/18 02:14:08;;;;;;;1.05;0.22;;;;;;;10.88;91.25;98645.66;5032112;28;20815;-74
2022/11/18 02:16:55;;;;;;;5.95;0.55;;;;;;;10.98;90.87;98656.38;5029021;28;20435;-74
2022/11/18 02:19:50;;;;;;;4.68;0.80;;;;;;;11.05;90.56;98659.53;5017590;28;20440;-75
2022/11/18 02:22:36;;;;;;;2.53;0.57;;;;;;;11.03;90.50;98663.63;5031003;28;20403;-75
2022/11/18 02:25:20;;;;;;;2.80;1.05;;;;;;;11.00;90.85;98667.72;5027391;28;20495;-75
2022/11/18 02:27:45;;;;;;;1.08;0.50;;;;;;;10.96;91.04;98672.13;5014573;28;20432;-75
2022/11/18 02:30:14;;;;;;;4.30;0.90;;;;;;;10.93;91.39;98686.25;5025052;28;20763;-75
2022/11/18 02:33:00;;;;;;;2.03;0.80;;;;;;;10.89;91.64;98679.78;5032218;28;20490;-74
2022/11/18 02:35:28;;;;;;;2.00;0.68;;;;;;;10.84;91.94;98694.19;5029365;28;20491;-75
2022/11/18 02:37:59;;;;;;;1.20;0.90;;;;;;;10.83;92.05;98691.78;5027321;28;20418;-74
2022/11/18 02:40:37;;;;;;;1.20;0.40;;;;;;;10.85;91.97;98697.72;5030841;28;20905;-74
2022/11/18 02:43:12;;;;;;;1.23;0.35;;;;;;;10.86;91.90;98708.28;5031710;28;20415;-75
2022/11/18 02:45:41;;;;;;;0.60;0.40;;;;;;;10.87;91.95;98703.66;5028336;28;20910;-75
2022/11/18 02:48:10;;;;;;;3.88;0.50;;;;;;;10.88;92.03;98705.28;5013317;28;20423;-75
2022/11/18 02:50:37;;;;;;;2.80;0.43;;;;;;;10.89;92.01;98701.47;5025716;28;20421;-74
2022/11/18 02:53:06;;;;;;;0.80;0.40;;;;;;;10.85;92.06;98700.44;5032066;28;20398;-75
2022/11/18 02:55:34;;;;;;;0.40;0.40;;;;;;;10.80;92.09;98698.56;5016427;28;20398;-75
2022/11/18 02:58:01;;;;;;;1.50;0.40;;;;;;;10.73;92.39;98698.16;5013671;28;20408;-74
2022/11/18 03:00:27;;;;;;;3.95;0.60;;;;;;;10.69;92.65;98699.81;5029996;28;20412;-75
2022/11/18 03:02:52;;;;;;;3.15;0.47;;;;;;;10.72;92.72;98699.22;5026568;28;20496;-75
2022/11/18 03:05:45;;;;;;;1.20;0.57;;;;;;;10.79;92.48;98704.31;5018265;28;20411;-75
2022/11/18 03:08:19;;;;;;;2.28;0.70;;;;;;;10.75;92.34;98708.69;5022019;28;20510;-74
2022/11/18 03:11:02;;;;;;;1.65;0.47;;;;;;;10.78;92.45;98717.03;5029089;28;20399;-74
2022/11/18 03:13:34;;;;;;;1.80;0.43;;;;;;;10.80;92.55;98716.75;5017925;28;20917;-75
2022/11/18 03:16:17;;;;;;;1.90;0.50;;;;;;;10.81;92.41;98716.47;5020247;28;20447;-74
2022/11/18 03:19:01;;;;;;;1.60;0.50;;;;;;;10.81;92.38;98721.88;5016400;28;20418;-74
2022/11/18 03:21:44;;;;;;;4.72;0.60;;;;;;;10.82;92.37;98723.50;5031651;28;20387;-75
2022/11/18 03:24:19;;;;;;;2.90;0.80;;;;;;;10.84;92.15;98732.13;5024112;28;20396;-74
2022/11/18 03:26:52;;;;;;;2.50;0.50;;;;;;;10.86;92.24;98729.16;5026213;28;20419;-75
2022/11/18 03:29:25;;;;;;;0.50;0.40;;;;;;;10.82;92.18;98728.94;5021472;28;20806;-74
2022/11/18 03:32:13;;;;;;;1.67;0.60;;;;;;;10.85;92.30;98731.06;5031644;28;20441;-74
2022/11/18 03:34:46;;;;;;;1.08;0.40;;;;;;;10.89;92.24;98734.81;5029939;28;20407;-74
2022/11/18 03:37:14;;;;;;;4.00;0.60;;;;;;;10.91;92.25;98740.75;5024365;28;20416;-74
2022/11/18 03:39:48;;;;;;;6.57;0.80;;;;;;;10.90;92.11;98747.25;5025675;28;20398;-74
2022/11/18 03:42:24;;;;;;;1.27;0.80;;;;;;;10.86;92.44;98742.69;5031486;28;20434;-75
2022/11/18 03:44:54;;;;;;;1.08;0.70;;;;;;;10.90;92.09;98751.84;5029330;28;20914;-74
2022/11/18 03:47:37;;;;;;;0.82;0.80;;;;;;;10.84;92.04;98755.72;5022099;28;20422;-74
2022/11/18 03:50:20;;;;;;;2.30;1.58;;;;;;;10.77;92.26;98756.06;5031400;28;20399;-74
2022/11/18 03:52:49;;;;;;;2.93;1.30;;;;;;;10.73;92.16;98757.75;5020338;28;20397;-74
2022/11/18 03:55:20;;;;;;;1.60;0.80;;;;;;;10.71;92.44;98761.81;5025404;28;20407;-74
2022/11/18 03:57:53;;;;;;;1.85;0.95;;;;;;;10.72;92.12;98760.72;5020728;28;20494;-73
2022/11/18 04:00:19;;;;;;;1.42;0.40;;;;;;;10.71;92.00;98764.53;5031313;28;20392;-74
2022/11/18 04:02:46;;;;;;;2.72;0.55;;;;;;;10.69;91.66;98769.44;5031311;28;20734;-74
2022/11/18 04:05:13;;;;;;;2.03;0.57;;;;;;;10.61;91.82;98770.84;5029023;28;20485;-74
2022/11/18 04:07:45;;;;;;;3.85;0.80;;;;;;;10.63;91.33;98779.53;5026786;28;20435;-74
2022/11/18 04:10:26;;;;;;;3.00;0.73;;;;;;;10.65;91.71;98777.31;5031128;28;20392;-74
2022/11/18 04:13:06;;;;;;;3.42;0.60;;;;;;;10.65;91.50;98782.75;5031208;28;20478;-74
2022/11/18 04:15:31;;;;;;;0.55;0.30;;;;;;;10.58;91.38;98787.69;5029088;28;20525;-74
2022/11/18 04:17:57;;;;;;;3.60;0.50;;;;;;;10.57;91.36;98791.47;5033108;28;20407;-74
2022/11/18 04:20:23;;;;;;;1.03;0.53;;;;;;;10.57;91.34;98787.97;5033530;28;20649;-74
2022/11/18 04:22:49;;;;;;;1.25;0.30;;;;;;;10.56;91.25;98798.00;5034758;28;20387;-74
2022/11/18 04:25:15;;;;;;;0.47;0.40;;;;;;;10.54;91.27;98789.34;5019407;28;20419;-74
2022/11/18 04:27:40;;;;;;;2.40;0.50;;;;;;;10.60;91.21;98790.13;5026487;28;20922;-74
2022/11/18 04:30:06;;;;;;;2.07;0.43;;;;;;;10.65;90.92;98801.72;5028659;28;20410;-74
2022/11/18 04:32:32;;;;;;;2.30;0.60;;;;;;;10.63;90.84;98797.69;5033349;28;20398;-74
2022/11/18 04:34:57;;;;;;;1.98;0.30;;;;;;;10.56;90.74;98808.03;5033688;28;20407;-74
2022/11/18 04:37:23;;;;;;;0.93;0.60;;;;;;;10.50;90.45;98804.56;5031225;28;20419;-74
2022/11/18 04:39:49;;;;;;;1.60;0.30;;;;;;;10.38;90.87;98814.94;5030333;28;20383;-74
2022/11/18 04:42:14;;;;;;;0.52;0.20;;;;;;;10.38;90.75;98817.66;5066795;28;20440;-74
2022/11/18 04:44:39;;;;;;;0.90;0.50;;;;;;;10.41;90.46;98808.94;5026096;28;20421;-74
2022/11/18 04:47:06;;;;;;;2.15;0.28;;;;;;;10.40;90.18;98810.88;5031600;28;20425;-74
2022/11/18 04:49:31;;;;;;;2.40;0.50;;;;;;;10.40;89.96;98816.28;5018540;28;20399;-74
2022/11/18 04:51:57;;;;;;;2.00;0.30;;;;;;;10.35;90.20;98818.22;5034421;28;20387;-74
2022/11/18 04:54:24;;;;;;;1.50;0.20;;;;;;;10.34;90.00;98825.53;5031846;28;20408;-74
2022/11/18 04:56:49;;;;;;;0.80;0.20;;;;;;;10.32;89.94;98822.31;5031384;28;20407;-74
2022/11/18 04:59:18;;;;;;;1.70;0.47;;;;;;;10.29;89.80;98825.56;5025715;28;20426;-74
2022/11/18 05:01:43;;;;;;;0.28;0.15;;;;;;;10.19;90.00;98828.34;5034045;28;20476;-74
2022/11/18 05:04:12;;;;;;;0.20;0.10;;;;;;;10.16;90.14;98830.81;5021929;28;20874;-74
2022/11/18 05:06:38;;;;;;;2.70;0.52;;;;;;;10.19;90.03;98839.19;5026784;28;20414;-74
2022/11/18 05:09:03;;;;;;;1.20;0.30;;;;;;;10.13;89.67;98844.88;5022570;28;20406;-74
2022/11/18 05:14:13;;;;;;;0.70;0.10;;;;;;;10.12;89.80;98854.09;5017250;28;20388;-74
2022/11/18 05:16:38;;;;;;;1.40;0.50;;;;;;;10.07;89.82;98846.81;5016659;28;20439;-74
2022/11/18 05:19:04;;;;;;;0.10;0.10;;;;;;;10.08;89.81;98856.53;5020693;28;20870;-74
2022/11/18 05:21:30;;;;;;;0.30;0.20;;;;;;;10.07;89.67;98857.66;5026693;28;20462;-74
2022/11/18 05:23:56;;;;;;;1.10;0.20;;;;;;;10.08;89.22;98859.25;5027899;28;20435;-75
2022/11/18 05:26:21;;;;;;;1.40;0.23;;;;;;;10.09;89.21;98863.59;5033477;28;20410;-74
2022/11/18 05:28:46;;;;;;;0.30;0.13;;;;;;;10.02;89.21;98865.78;5032725;28;20391;-74
2022/11/18 05:31:13;;;;;;;0.30;0.10;;;;;;;10.01;89.44;98861.44;5026957;28;20391;-74
2022/11/18 05:33:39;;;;;;;0.20;0.20;;;;;;;10.04;89.43;98869.03;5021826;28;20407;-74
2022/11/18 05:36:10;;;;;;;0.10;0.10;;;;;;;10.07;88.91;98868.47;5023617;28;20399;-74
2022/11/18 05:38:36;;;;;;;2.00;0.35;;;;;;;10.06;89.04;98876.88;5023358;28;20405;-74
2022/11/18 05:41:02;;;;;;;0.77;0.37;;;;;;;10.10;88.85;98878.75;5015235;28;20423;-75
2022/11/18 05:43:29;;;;;;;0.20;0.20;;;;;;;10.14;89.00;98882.50;5025251;28;20415;-75
2022/11/18 05:45:54;;;;;;;1.95;0.20;;;;;;;10.12;88.86;98883.84;5019702;28;20895;-75
2022/11/18 05:48:20;;;;;;;0.80;0.10;;;;;;;10.13;88.73;98889.00;5033298;28;20402;-74
2022/11/18 05:50:47;;;;;;;0.30;0.28;;;;;;;10.14;88.89;98884.44;5031892;28;20486;-75
2022/11/18 05:53:13;;;;;;;1.02;0.20;;;;;;;10.15;88.69;98894.97;5032778;28;20758;-74
2022/11/18 05:56:01;;;;;;;0.47;0.40;;;;;;;10.13;88.75;98901.72;5028299;28;20399;-74
2022/11/18 05:58:27;;;;;;;1.73;1.25;;;;;;;10.11;88.67;98898.50;5015065;28;20417;-75
2022/11/18 06:00:55;;;;;;;1.43;0.20;;;;;;;10.05;88.48;98889.59;5021265;28;20451;-75
2022/11/18 06:03:25;;;;;;;2.15;0.20;;;;;;;9.87;88.79;98884.81;5026500;28;20413;-74
2022/11/18 06:05:53;;;;;;;0.80;0.60;;;;;;;9.85;88.95;98890.50;5026744;28;20422;-74
2022/11/18 06:08:20;;;;;;;1.73;0.43;;;;;;;9.90;88.99;98892.38;5027319;28;20415;-74
2022/11/18 06:10:47;;;;;;;0.85;0.47;;;;;;;9.95;88.87;98905.06;5025656;28;20448;-74
2022/11/18 06:13:19;;;;;;;1.40;0.50;;;;;;;9.97;88.32;98903.72;5030650;28;20886;-75
2022/11/18 06:15:45;;;;;;;2.10;0.73;;;;;;;9.94;88.87;98904.28;5021449;28;20411;-74
2022/11/18 06:18:24;;;;;;;2.15;0.40;;;;;;;9.97;88.50;98905.59;5025415;28;21010;-75
2022/11/18 06:20:53;;;;;;;2.60;0.40;;;;;;;9.94;88.66;98904.28;5027034;28;20419;-77
2022/11/18 06:23:18;;;;;;;0.80;0.30;;;;;;;9.98;88.56;98912.66;5024746;28;20901;-74
2022/11/18 06:25:44;;;;;;;2.45;0.40;;;;;;;9.99;88.75;98920.47;5019027;28;20411;-75
2022/11/18 06:28:12;;;;;;;2.90;0.20;;;;;;;9.99;88.45;98922.38;5021584;28;20429;-75
2022/11/18 06:30:38;;;;;;;1.70;0.20;;;;;;;9.93;88.72;98931.59;5023306;28;20396;-75
2022/11/18 06:33:03;;;;;;;0.32;0.20;;;;;;;9.91;88.66;98940.00;5029708;28;20533;-75
2022/11/18 06:35:28;;;;;;;1.70;0.30;;;;;;;9.88;88.57;98948.66;5031415;28;20878;-74
2022/11/18 06:38:01;;;;;;;0.50;0.40;;;;;;;9.91;88.67;98940.00;5026271;28;20406;-74
2022/11/18 06:40:26;;;;;;;0.40;0.32;;;;;;;9.95;88.56;98946.47;5030750;28;20746;-75
2022/11/18 06:43:51;;;;;;;1.10;0.20;;;;;;;9.89;88.46;98951.09;5027269;28;20399;-74
2022/11/18 06:46:54;;;;;;;2.13;0.40;;;;;;;9.86;88.83;98956.25;5015415;28;20391;-72
2022/11/18 06:48:31;;;;;;;0.67;0.60;;;;;;;9.91;89.00;98951.63;5024167;28;20754;-74
2022/11/18 06:50:56;;;;;;;0.50;0.40;;;;;;;10.00;88.63;98970.00;5032192;28;20406;-74
2022/11/18 06:53:21;;;;;;;0.73;0.40;;;;;;;9.99;88.39;98969.19;5031931;28;20738;-75
2022/11/18 06:55:46;;;;;;;0.20;0.20;;;;;;;10.05;88.35;98972.66;5026580;28;20407;-75
2022/11/18 06:58:12;;;;;;;0.73;0.30;;;;;;;10.08;88.26;98970.22;5029704;28;20391;-75
2022/11/18 07:00:37;;;;;;;0.43;0.40;;;;;;;10.03;88.75;98972.97;5046511;28;20398;-75
2022/11/18 07:03:02;;;;;;;2.17;0.50;;;;;;;10.06;88.35;98983.22;5028739;28;20793;-76
2022/11/18 07:05:27;;;;;;;3.23;0.67;;;;;;;10.05;88.45;98978.91;5030398;28;20402;-75
2022/11/18 07:07:53;;;;;;;3.00;0.70;;;;;;;10.07;88.54;98984.03;5030390;28;20921;-75
2022/11/18 07:10:21;;;;;;;1.43;0.77;;;;;;;10.07;88.44;98979.44;5021582;28;20400;-75
2022/11/18 07:12:46;;;;;;;1.05;0.45;;;;;;;10.02;88.74;98994.88;5028964;28;20470;-75
2022/11/18 07:15:12;;;;;;;1.80;0.60;;;;;;;10.08;88.50;99000.00;5025384;28;20466;-75
2022/11/18 07:17:37;;;;;;;1.63;0.60;;;;;;;10.07;88.28;98998.41;5023308;28;20395;-74
2022/11/18 07:20:03;;;;;;;0.70;0.70;;;;;;;10.08;88.63;98999.19;5022515;28;20428;-74
2022/11/18 07:22:28;;;;;;;0.60;0.53;;;;;;;9.99;88.56;99001.66;5029344;28;20503;-75
2022/11/18 07:24:53;;;;;;;0.70;0.67;;;;;;;10.01;89.02;99004.09;5031621;28;20391;-74
2022/11/18 07:27:19;;;;;;;0.70;0.70;;;;;;;10.05;88.83;99011.38;5030365;28;20485;-75
2022/11/18 07:29:44;;;;;;;2.30;0.90;;;;;;;10.06;88.80;99018.41;5023003;28;20411;-75
2022/11/18 07:32:09;;;;;;;1.77;0.87;;;;;;;10.09;88.93;99007.03;5028661;28;20418;-75
2022/11/18 07:34:34;;;;;;;1.50;0.82;;;;;;;10.16;88.60;99018.41;5017783;28;20425;-74
2022/11/18 07:37:00;;;;;;;1.80;0.70;;;;;;;10.15;88.47;99024.91;5025780;28;20387;-75
2022/11/18 07:39:25;;;;;;;0.60;0.60;;;;;;;10.13;88.72;99024.34;5031153;28;20398;-74
2022/11/18 07:41:54;;;;;;;1.63;1.50;;;;;;;10.14;88.84;99030.63;5031478;28;20785;-74
2022/11/18 07:44:23;;;;;;;4.03;3.65;;;;;;;10.12;89.06;99038.97;5029884;28;20437;-74
2022/11/18 07:46:48;;;;;;;3.83;3.10;;;;;;;10.20;88.85;99040.31;5031362;28;20411;-75
2022/11/18 07:49:13;;;;;;;7.33;2.70;;;;;;;10.22;88.62;99051.69;5026919;28;20492;-74
2022/11/18 07:51:39;;;;;;;4.63;3.00;;;;;;;10.24;88.25;99049.53;5030718;28;20395;-75
2022/11/18 07:54:10;;;;;;;7.87;4.47;;;;;;;10.18;88.83;99056.03;5034335;28;20387;-75
2022/11/18 07:56:36;;;;;;;2.47;1.60;;;;;;;10.15;88.96;99059.28;5026479;28;20399;-75
2022/11/18 07:59:01;;;;;;;1.70;1.07;;;;;;;10.16;88.89;99060.91;5035176;28;20440;-74
2022/11/18 08:01:30;;;;;;;28.38;8.48;;;;;;;10.19;89.01;99061.16;5033698;28;20410;-74
2022/11/18 08:03:56;;;;;;;19.80;8.55;;;;;;;10.22;89.02;99059.81;5032339;28;20402;-74
2022/11/18 08:06:22;;;;;;;8.52;3.92;;;;;;;10.21;89.14;99067.09;5032526;28;20453;-74
2022/11/18 08:08:48;;;;;;;12.40;5.67;;;;;;;10.20;89.35;99062.00;5033818;28;20567;-74
2022/11/18 08:11:15;;;;;;;7.15;3.25;;;;;;;10.22;88.99;99068.75;5032995;28;20390;-74
2022/11/18 08:13:41;;;;;;;7.22;2.45;;;;;;;10.18;89.35;99069.56;5034731;28;20391;-74
2022/11/18 08:16:25;;;;;;;12.18;3.22;;;;;;;10.21;89.20;99074.41;5034125;28;20882;-75
2022/11/18 08:18:50;;;;;;;13.13;3.08;;;;;;;10.22;89.07;99076.03;5033441;28;20403;-74
2022/11/18 08:21:18;;;;;;;11.15;3.58;;;;;;;10.30;88.86;99078.19;5031778;28;20924;-74
2022/11/18 08:23:49;;;;;;;4.33;2.67;;;;;;;10.33;88.88;99085.78;5031510;28;20404;-74
2022/11/18 08:26:15;;;;;;;8.30;2.92;;;;;;;10.33;88.86;99085.78;5034489;28;20472;-74
2022/11/18 08:28:41;;;;;;;21.92;5.95;;;;;;;10.35;88.91;99081.69;5033714;28;20395;-74
2022/11/18 08:31:17;;;;;;;6.82;2.53;;;;;;;10.35;88.91;99080.88;5034774;28;20762;-74
2022/11/18 08:33:43;;;;;;;9.93;2.90;;;;;;;10.31;88.98;99085.22;5034573;28;20734;-74
2022/11/18 08:36:13;;;;;;;7.97;2.53;;;;;;;10.33;89.17;99080.34;5032942;28;20399;-74
2022/11/18 08:38:38;;;;;;;8.02;3.35;;;;;;;10.35;89.28;99089.81;5031030;28;20399;-74
2022/11/18 08:41:05;;;;;;;7.20;3.50;;;;;;;10.37;89.24;99093.03;5025730;28;20453;-74
2022/11/18 08:43:30;;;;;;;7.95;3.28;;;;;;;10.38;89.01;99094.69;5032524;28;20414;-74
2022/11/18 08:45:56;;;;;;;6.97;2.83;;;;;;;10.38;89.07;99091.97;5024394;28;20415;-74
2022/11/18 08:48:21;;;;;;;7.00;3.20;;;;;;;10.39;89.29;99099.00;5027789;28;20766;-74
2022/11/18 08:50:46;;;;;;;5.90;2.70;;;;;;;10.44;89.42;99103.59;5034130;28;20395;-74
2022/11/18 08:53:11;;;;;;;3.47;2.30;;;;;;;10.47;89.04;99103.06;5030068;28;20432;-74
2022/11/18 08:55:37;;;;;;;6.60;2.57;;;;;;;10.49;89.22;99098.16;5014511;28;20500;-75
2022/11/18 08:58:02;;;;;;;2.43;1.70;;;;;;;10.57;88.87;99096.78;5017483;28;21116;-74
2022/11/18 09:00:27;;;;;;;3.37;2.10;;;;;;;10.60;88.95;99109.78;5014192;28;20444;-75
2022/11/18 09:02:53;;;;;;;2.23;2.03;;;;;;;10.62;88.69;99110.28;5026015;28;20395;-75
2022/11/18 09:05:18;;;;;;;2.70;2.20;;;;;;;10.56;88.90;99111.41;5019326;28;20702;-75
2022/11/18 09:07:43;;;;;;;3.90;2.60;;;;;;;10.49;89.42;99117.13;5015987;28;20431;-75
2022/11/18 09:10:11;;;;;;;6.57;1.93;;;;;;;10.50;89.50;99123.34;5017014;28;20407;-75
2022/11/18 09:12:37;;;;;;;2.78;2.53;;;;;;;10.54;89.58;99119.78;5014052;28;20438;-75
2022/11/18 09:15:02;;;;;;;3.43;1.67;;;;;;;10.60;89.29;99117.91;5016349;28;20415;-74
2022/11/18 09:17:28;;;;;;;1.30;1.25;;;;;;;10.64;89.09;99124.34;5015464;28;20411;-74
2022/11/18 09:19:53;;;;;;;1.57;1.47;;;;;;;10.66;89.21;99130.31;5019149;28;21036;-75
2022/11/18 09:22:18;;;;;;;1.80;1.07;;;;;;;10.70;89.19;99121.34;5015633;28;20905;-74
2022/11/18 09:24:44;;;;;;;4.10;1.77;;;;;;;10.76;88.97;99125.69;5018477;28;20950;-74
2022/11/18 09:27:09;;;;;;;3.83;2.10;;;;;;;10.77;88.89;99130.00;5011118;28;20512;-75
2022/11/18 09:29:35;;;;;;;3.13;1.60;;;;;;;10.84;88.70;99127.78;5015629;28;20455;-75
2022/11/18 09:32:00;;;;;;;1.47;1.37;;;;;;;10.93;88.55;99128.03;5016708;28;20418;-74
2022/11/18 09:34:27;;;;;;;3.08;1.10;;;;;;;10.93;88.62;99125.34;5016367;28;20434;-74
2022/11/18 09:36:54;;;;;;;3.33;1.90;;;;;;;11.01;88.25;99135.56;5017479;28;20424;-74
2022/11/18 09:39:20;;;;;;;4.17;1.73;;;;;;;11.07;88.09;99134.44;5015564;28;20446;-74
2022/11/18 09:41:50;;;;;;;6.50;2.70;;;;;;;11.04;88.06;99145.03;5014046;28;20411;-75
2022/11/18 09:44:44;;;;;;;2.95;1.88;;;;;;;10.98;88.17;99138.84;5017807;28;20773;-74
2022/11/18 09:47:28;;;;;;;4.00;1.70;;;;;;;10.98;88.65;99148.88;5016722;28;20428;-75
2022/11/18 09:50:04;;;;;;;3.55;1.70;;;;;;;11.02;88.69;99156.19;5025107;28;20404;-75
2022/11/18 09:52:40;;;;;;;3.17;1.77;;;;;;;11.08;88.47;99157.75;5015990;28;20517;-74
2022/11/18 09:55:16;;;;;;;4.07;1.40;;;;;;;11.17;88.27;99155.25;5013767;28;20430;-74
2022/11/18 09:57:46;;;;;;;3.85;1.70;;;;;;;11.19;88.45;99162.06;5030264;28;20769;-74
2022/11/18 10:00:27;;;;;;;3.22;1.50;;;;;;;11.24;88.10;99162.00;5032682;28;20412;-74
2022/11/18 10:03:26;;;;;;;5.35;1.38;;;;;;;11.20;88.43;99168.25;5014591;28;20497;-74
2022/11/18 10:06:09;;;;;;;3.67;1.50;;;;;;;11.19;88.37;99164.75;5016618;28;20778;-74
2022/11/18 10:08:37;;;;;;;3.83;1.50;;;;;;;11.22;88.44;99166.09;5016514;28;20421;-74
2022/11/18 10:11:08;;;;;;;1.60;1.45;;;;;;;11.26;88.41;99169.88;5014333;28;20444;-74
2022/11/18 10:13:42;;;;;;;2.85;1.40;;;;;;;11.25;88.59;99179.91;5017922;28;20429;-74
2022/11/18 10:16:33;;;;;;;3.88;1.80;;;;;;;11.35;88.41;99181.75;5014942;28;20457;-74
2022/11/18 10:19:04;;;;;;;2.15;1.65;;;;;;;11.34;88.21;99183.66;5017587;28;20522;-74
2022/11/18 10:21:58;;;;;;;1.63;1.52;;;;;;;11.34;88.07;99188.25;5010605;28;20417;-74
2022/11/18 10:24:29;;;;;;;4.20;1.95;;;;;;;11.37;88.15;99190.41;5015700;28;20403;-74
2022/11/18 10:26:58;;;;;;;4.88;2.67;;;;;;;11.42;88.08;99188.50;5012763;28;20424;-74
2022/11/18 10:29:24;;;;;;;5.70;3.58;;;;;;;11.55;87.77;99194.38;5014706;28;20433;-74
2022/11/18 10:32:03;;;;;;;7.73;3.87;;;;;;;11.62;87.70;99194.88;5015081;28;20431;-74
2022/11/18 10:34:29;;;;;;;8.63;4.55;;;;;;;11.57;87.71;99189.47;5016261;28;20435;-74
2022/11/18 10:37:01;;;;;;;13.70;6.23;;;;;;;11.50;87.79;99191.69;5015646;28;20488;-74
2022/11/18 10:39:26;;;;;;;22.55;7.55;;;;;;;11.39;88.12;99185.53;5011464;28;20475;-74
2022/11/18 10:41:57;;;;;;;10.77;3.83;;;;;;;11.38;88.36;99198.28;5013283;28;20420;-74
2022/11/18 10:44:40;;;;;;;11.63;4.13;;;;;;;11.44;88.36;99193.63;5014347;28;20430;-74
2022/11/18 10:47:16;;;;;;;16.33;4.22;;;;;;;11.49;88.14;99195.50;5013146;28;20810;-74
2022/11/18 10:49:41;;;;;;;17.10;4.47;;;;;;;11.51;88.06;99199.53;5013847;28;20414;-74
2022/11/18 10:52:12;;;;;;;10.73;3.97;;;;;;;11.54;88.24;99190.03;5014897;28;20412;-74
2022/11/18 10:54:38;;;;;;;11.15;3.75;;;;;;;11.49;87.90;99195.50;5014267;28;20966;-74
2022/11/18 10:57:16;;;;;;;12.65;4.70;;;;;;;11.43;88.13;99197.41;5014040;28;20509;-73
2022/11/18 10:59:56;;;;;;;6.57;3.28;;;;;;;11.46;88.25;99197.66;5012834;28;21511;-74
2022/11/18 11:02:39;;;;;;;8.57;3.10;;;;;;;11.48;87.85;99196.59;5014769;28;20505;-74
2022/11/18 11:05:22;;;;;;;10.65;4.22;;;;;;;11.48;88.24;99193.88;5012682;28;20791;-74
2022/11/18 11:08:24;;;;;;;7.03;2.78;;;;;;;11.55;87.97;99191.66;5011187;28;20888;-74
2022/11/18 11:10:57;;;;;;;4.03;1.55;;;;;;;11.59;87.55;99198.16;5012062;28;20429;-73
2022/11/18 11:13:28;;;;;;;2.70;1.27;;;;;;;11.62;87.58;99201.13;5013509;28;20407;-73
2022/11/18 11:15:57;;;;;;;1.33;1.20;;;;;;;11.74;87.30;99192.63;5015316;28;20446;-74
2022/11/18 11:18:42;;;;;;;3.20;1.38;;;;;;;11.83;87.08;99199.88;5014561;28;20416;-74
2022/11/18 11:21:14;;;;;;;2.75;2.00;;;;;;;11.96;86.62;99193.00;5012303;28;20471;-74
2022/11/18 11:23:41;;;;;;;7.40;2.95;;;;;;;11.91;86.40;99199.28;5006385;28;20438;-73
2022/11/18 11:26:29;;;;;;;3.33;1.65;;;;;;;11.88;86.85;99205.28;5007639;28;20405;-74
2022/11/18 11:29:04;;;;;;;3.37;2.00;;;;;;;11.92;87.00;99200.88;5010816;28;20903;-74
2022/11/18 11:31:48;;;;;;;2.13;1.83;;;;;;;11.91;86.89;99204.72;5010276;28;20424;-74
2022/11/18 11:34:39;;;;;;;2.42;1.80;;;;;;;11.85;86.90;99218.63;5009907;28;20415;-74
2022/11/18 11:37:21;;;;;;;4.07;1.60;;;;;;;11.81;87.12;99207.50;5009955;28;20409;-74
2022/11/18 11:40:00;;;;;;;4.18;2.38;;;;;;;11.80;87.13;99214.03;5016567;28;20424;-73
2022/11/18 11:43:00;;;;;;;2.33;1.80;;;;;;;11.81;87.07;99214.84;5014155;28;20772;-73
2022/11/18 11:45:36;;;;;;;5.37;1.57;;;;;;;11.79;87.00;99220.53;5010715;28;20511;-74
2022/11/18 11:48:29;;;;;;;4.20;1.52;;;;;;;11.72;86.79;99211.91;5011657;28;20433;-74
2022/11/18 11:51:02;;;;;;;3.38;1.40;;;;;;;11.66;87.09;99226.56;5015547;28;20474;-74
2022/11/18 11:53:52;;;;;;;3.17;1.60;;;;;;;11.63;87.03;99220.88;5018837;28;20955;-73
2022/11/18 11:56:27;;;;;;;4.20;1.43;;;;;;;11.63;86.99;99221.72;5014574;28;20444;-73
2022/11/18 11:59:35;;;;;;;3.03;1.50;;;;;;;11.71;86.89;99225.75;5015299;28;20435;-74